Time;durP1;ratioP1;P1;durP2;ratioP2;P2;SDS_P1;SDS_P2;PMS_P1;PMS_P2;Temp;Humidity;BMP_temperature;BMP_pressure;BME280_temperature;BME280_humidity;BME280_pressure;Samples;Min_cycle;Max_cycle;Signal;HPM_P1;HPM_P2
2022/12/14 00:00:33;;;;;;;24.40;14.20;;;;;;;1.34;47.06;96136.06;5059971;28;20222;-69
2022/12/14 00:02:59;;;;;;;19.50;12.53;;;;;;;1.33;47.24;96128.41;5058315;28;20187;-70
2022/12/14 00:05:27;;;;;;;23.60;12.93;;;;;;;1.34;47.39;96128.31;5056650;28;20741;-69
2022/12/14 00:07:52;;;;;;;23.53;13.63;;;;;;;1.30;47.54;96115.78;5058047;28;20202;-71
2022/12/14 00:10:18;;;;;;;24.97;12.83;;;;;;;1.35;47.95;96098.97;5061370;28;20439;-70
2022/12/14 00:12:43;;;;;;;22.87;14.20;;;;;;;1.40;47.32;96105.50;5062600;28;20178;-69
2022/12/14 00:15:09;;;;;;;29.73;13.97;;;;;;;1.31;47.49;96107.09;5062361;28;20284;-70
2022/12/14 00:17:34;;;;;;;23.27;13.73;;;;;;;1.30;47.50;96090.75;5059687;28;20302;-70
2022/12/14 00:20:00;;;;;;;24.47;13.33;;;;;;;1.34;48.51;96083.59;5056978;28;20245;-71
2022/12/14 00:22:25;;;;;;;23.03;14.10;;;;;;;1.42;47.65;96083.81;5058949;28;20556;-70
2022/12/14 00:24:51;;;;;;;19.50;11.90;;;;;;;1.44;47.61;96075.94;5060540;28;20210;-70
2022/12/14 00:27:16;;;;;;;20.80;13.20;;;;;;;1.45;47.92;96077.56;5069064;28;20273;-71
2022/12/14 00:29:41;;;;;;;22.30;14.30;;;;;;;1.37;48.07;96075.59;5054175;28;20214;-70
2022/12/14 00:32:07;;;;;;;22.80;14.30;;;;;;;1.45;47.67;96065.47;5055375;28;20189;-70
2022/12/14 00:34:32;;;;;;;25.37;14.10;;;;;;;1.47;48.12;96065.38;5053148;28;20227;-70
2022/12/14 00:36:58;;;;;;;28.93;13.73;;;;;;;1.44;47.86;96070.78;5059129;28;20692;-70
2022/12/14 00:39:23;;;;;;;23.73;13.60;;;;;;;1.49;47.13;96069.44;5060411;28;20613;-70
2022/12/14 00:41:49;;;;;;;25.43;13.67;;;;;;;1.40;47.67;96077.94;5060880;28;20199;-71
2022/12/14 00:44:14;;;;;;;25.40;13.87;;;;;;;1.20;48.19;96082.13;5060870;28;20297;-70
2022/12/14 00:46:39;;;;;;;24.53;13.70;;;;;;;1.27;48.25;96069.53;5056908;28;20191;-72
2022/12/14 00:49:05;;;;;;;21.90;13.43;;;;;;;1.20;48.35;96064.84;5058541;28;20536;-70
2022/12/14 00:51:30;;;;;;;21.97;13.30;;;;;;;1.15;48.78;96055.84;5052348;28;20270;-70
2022/12/14 00:53:56;;;;;;;24.40;13.37;;;;;;;1.17;49.21;96043.63;5058343;28;20261;-70
2022/12/14 00:56:21;;;;;;;23.20;14.93;;;;;;;1.16;49.10;96058.31;5060389;28;20242;-68
2022/12/14 00:58:50;;;;;;;22.63;14.00;;;;;;;1.22;49.01;96064.75;5063801;28;20764;-71
2022/12/14 01:01:16;;;;;;;26.53;14.50;;;;;;;1.31;48.87;96076.91;5060275;28;20193;-70
2022/12/14 01:03:41;;;;;;;23.30;13.27;;;;;;;1.37;49.17;96085.94;5053334;28;20497;-71
2022/12/14 01:06:15;;;;;;;24.90;14.77;;;;;;;1.46;49.20;96094.72;5058011;28;20247;-70
2022/12/14 01:08:41;;;;;;;23.13;14.37;;;;;;;1.53;48.77;96093.25;5051626;28;20178;-71
2022/12/14 01:11:08;;;;;;;24.23;13.80;;;;;;;1.47;48.86;96076.50;5065340;28;20849;-72
2022/12/14 01:13:33;;;;;;;25.13;14.10;;;;;;;1.49;49.07;96078.97;5051721;28;20221;-70
2022/12/14 01:16:07;;;;;;;23.63;14.43;;;;;;;1.42;48.63;96063.16;5061566;28;20452;-70
2022/12/14 01:18:34;;;;;;;23.87;13.80;;;;;;;1.34;48.90;96056.03;5050517;28;20203;-69
2022/12/14 01:21:11;;;;;;;25.13;14.43;;;;;;;1.34;49.25;96061.19;5055495;28;20452;-69
2022/12/14 01:23:37;;;;;;;24.50;15.60;;;;;;;1.33;48.94;96069.88;5049976;28;20457;-70
2022/12/14 01:26:02;;;;;;;25.73;15.07;;;;;;;1.28;49.10;96050.53;5055857;28;20473;-70
2022/12/14 01:28:28;;;;;;;25.57;14.60;;;;;;;1.32;49.26;96052.75;5066212;28;20179;-69
2022/12/14 01:30:53;;;;;;;28.50;14.30;;;;;;;1.44;49.51;96039.78;5061830;28;20178;-70
2022/12/14 01:33:19;;;;;;;24.23;15.10;;;;;;;1.34;49.69;96039.69;5058216;28;20198;-68
2022/12/14 01:35:44;;;;;;;24.27;14.70;;;;;;;1.40;49.17;96048.72;5054174;28;20239;-69
2022/12/14 01:38:11;;;;;;;23.90;15.07;;;;;;;1.33;48.58;96063.88;5056226;28;20314;-70
2022/12/14 01:40:36;;;;;;;26.87;14.53;;;;;;;1.31;49.45;96076.91;5063887;28;20511;-70
2022/12/14 01:43:01;;;;;;;26.80;15.97;;;;;;;1.33;49.02;96084.53;5055815;28;20217;-70
2022/12/14 01:45:27;;;;;;;28.00;14.90;;;;;;;1.26;49.64;96081.59;5057491;28;20348;-70
2022/12/14 01:47:56;;;;;;;23.10;14.33;;;;;;;1.31;49.48;96071.75;5051240;28;20232;-71
2022/12/14 01:50:25;;;;;;;24.40;14.97;;;;;;;1.33;49.59;96059.53;5055665;28;20182;-70
2022/12/14 01:52:53;;;;;;;23.47;15.70;;;;;;;1.36;49.18;96053.31;5053794;28;20429;-68
2022/12/14 01:55:34;;;;;;;24.70;15.33;;;;;;;1.38;49.23;96051.44;5055538;28;20520;-70
2022/12/14 01:58:02;;;;;;;28.83;15.37;;;;;;;1.36;49.27;96040.41;5060872;28;20537;-71
2022/12/14 02:00:27;;;;;;;24.40;14.93;;;;;;;1.45;49.05;96041.44;5058240;28;20433;-71
2022/12/14 02:02:59;;;;;;;24.87;15.70;;;;;;;1.42;48.91;96033.91;5056992;28;20429;-69
2022/12/14 02:05:26;;;;;;;31.40;14.57;;;;;;;1.34;49.38;96030.22;5053154;28;20280;-69
2022/12/14 02:07:53;;;;;;;30.00;16.23;;;;;;;1.33;49.56;96027.72;5055110;28;20418;-70
2022/12/14 02:10:20;;;;;;;25.63;14.60;;;;;;;1.32;49.44;96026.94;5056231;28;20928;-70
2022/12/14 02:12:52;;;;;;;25.83;13.87;;;;;;;1.40;49.04;96020.31;5060513;28;20463;-70
2022/12/14 02:15:18;;;;;;;23.20;13.70;;;;;;;1.43;49.26;96026.06;5057757;28;20458;-70
2022/12/14 02:17:44;;;;;;;24.33;15.10;;;;;;;1.58;48.99;96029.16;5057493;28;20460;-69
2022/12/14 02:20:11;;;;;;;26.50;15.50;;;;;;;1.57;49.37;96032.69;5058090;28;20187;-69
2022/12/14 02:22:50;;;;;;;29.77;15.17;;;;;;;1.49;48.88;96017.00;5060803;28;20431;-70
2022/12/14 02:25:43;;;;;;;23.90;13.77;;;;;;;1.52;48.97;96016.72;5060099;28;20444;-70
2022/12/14 02:28:23;;;;;;;27.27;14.13;;;;;;;1.59;48.74;96010.13;5051390;28;20421;-70
2022/12/14 02:31:05;;;;;;;18.50;12.60;;;;;;;1.49;48.74;96017.81;5059394;28;20428;-70
2022/12/14 02:33:46;;;;;;;21.33;13.00;;;;;;;1.49;49.14;96019.59;5044258;28;20511;-70
2022/12/14 02:36:24;;;;;;;19.73;13.37;;;;;;;1.52;48.61;96016.72;5055829;28;20834;-71
2022/12/14 02:38:54;;;;;;;21.80;13.60;;;;;;;1.49;49.41;96014.41;5049769;28;20467;-69
2022/12/14 02:41:25;;;;;;;22.93;14.23;;;;;;;1.55;48.76;96013.91;5055499;28;20923;-71
2022/12/14 02:43:56;;;;;;;24.17;14.00;;;;;;;1.58;49.06;96011.09;5057343;28;20409;-70
2022/12/14 02:46:50;;;;;;;19.00;13.23;;;;;;;1.57;48.82;96008.63;5056950;28;20428;-70
2022/12/14 02:49:24;;;;;;;22.80;13.83;;;;;;;1.64;48.67;96007.16;5057420;28;20483;-70
2022/12/14 02:52:13;;;;;;;23.30;14.20;;;;;;;1.64;48.81;96010.56;5054347;28;20457;-71
2022/12/14 02:55:00;;;;;;;24.33;13.43;;;;;;;1.65;48.57;95995.91;5051255;28;20487;-71
2022/12/14 02:57:33;;;;;;;21.57;14.23;;;;;;;1.61;48.50;95999.66;5052157;28;20552;-70
2022/12/14 03:00:00;;;;;;;21.80;14.40;;;;;;;1.70;48.41;95993.78;5051556;28;20494;-69
2022/12/14 03:02:26;;;;;;;26.87;14.40;;;;;;;1.67;48.38;95987.06;5052021;28;20417;-70
2022/12/14 03:04:52;;;;;;;22.80;13.90;;;;;;;1.57;48.95;95983.63;5057208;28;20569;-69
2022/12/14 03:07:31;;;;;;;21.33;13.53;;;;;;;1.56;49.18;95979.38;5051943;28;20417;-69
2022/12/14 03:10:12;;;;;;;21.97;14.13;;;;;;;1.53;48.71;95979.63;5053635;28;20189;-70
2022/12/14 03:12:39;;;;;;;26.37;15.77;;;;;;;1.59;49.04;95965.41;5051233;28;20421;-69
2022/12/14 03:15:08;;;;;;;24.07;14.70;;;;;;;1.58;49.42;95981.84;5055601;28;20550;-68
2022/12/14 03:17:33;;;;;;;23.07;14.07;;;;;;;1.46;49.62;95976.72;5056532;28;20471;-70
2022/12/14 03:20:11;;;;;;;23.10;14.90;;;;;;;1.49;50.10;95978.25;5056861;28;20520;-70
2022/12/14 03:23:15;;;;;;;23.73;14.80;;;;;;;1.53;50.15;95977.06;5056719;28;20179;-71
2022/12/14 03:25:45;;;;;;;26.33;15.43;;;;;;;1.54;50.08;95965.78;5027608;28;20448;-69
2022/12/14 03:28:17;;;;;;;21.10;14.43;;;;;;;1.53;50.65;95977.88;5057137;28;20960;-69
2022/12/14 03:30:48;;;;;;;24.13;13.93;;;;;;;1.43;50.58;95971.00;5047168;28;20429;-69
2022/12/14 03:33:16;;;;;;;22.97;14.10;;;;;;;1.27;51.15;95972.25;5054427;28;20508;-70
2022/12/14 03:35:45;;;;;;;25.00;15.30;;;;;;;1.21;51.42;95965.81;5051928;28;20579;-69
2022/12/14 03:38:19;;;;;;;25.97;16.10;;;;;;;1.31;51.44;95957.34;5054378;28;20461;-68
2022/12/14 03:40:53;;;;;;;26.63;16.00;;;;;;;1.32;51.45;95954.63;5057642;28;20810;-70
2022/12/14 03:43:26;;;;;;;24.17;15.70;;;;;;;1.32;51.64;95953.84;5055126;28;20436;-71
2022/12/14 03:46:08;;;;;;;25.90;16.20;;;;;;;1.27;50.98;95946.44;5057189;28;20484;-70
2022/12/14 03:48:49;;;;;;;25.03;15.20;;;;;;;1.31;51.55;95936.72;5036428;28;20803;-69
2022/12/14 03:51:24;;;;;;;25.57;14.77;;;;;;;1.23;51.56;95932.16;5051737;28;20972;-70
2022/12/14 03:53:57;;;;;;;23.90;14.80;;;;;;;1.23;51.39;95939.91;5052529;28;20492;-70
2022/12/14 03:56:27;;;;;;;24.70;15.90;;;;;;;1.15;52.00;95929.38;5057285;28;20775;-69
2022/12/14 03:59:13;;;;;;;24.53;15.67;;;;;;;1.02;52.43;95930.38;5057440;28;20477;-68
2022/12/14 04:01:43;;;;;;;26.53;15.97;;;;;;;1.15;52.71;95919.03;5048995;28;20933;-69
2022/12/14 04:04:26;;;;;;;26.43;16.20;;;;;;;1.21;51.94;95921.16;5059478;28;20465;-71
2022/12/14 04:07:13;;;;;;;24.17;15.90;;;;;;;1.28;52.02;95917.09;5064891;28;20432;-69
2022/12/14 04:09:48;;;;;;;25.40;16.30;;;;;;;1.42;51.76;95917.72;5043870;28;20437;-70
2022/12/14 04:21:04;;;;;;;28.37;16.97;;;;;;;1.11;52.16;95899.63;5045174;28;20438;-70
2022/12/14 04:26:26;;;;;;;29.53;18.37;;;;;;;1.22;52.86;95886.66;5050545;28;20458;-70
2022/12/14 04:31:45;;;;;;;30.37;15.87;;;;;;;1.32;52.61;95886.72;5057425;28;20500;-70
2022/12/14 04:34:11;;;;;;;27.90;17.00;;;;;;;1.27;52.90;95878.50;5068025;28;20978;-69
2022/12/14 04:36:47;;;;;;;29.63;17.90;;;;;;;1.29;52.94;95884.38;5053624;28;20452;-70
2022/12/14 04:39:35;;;;;;;28.20;17.57;;;;;;;1.30;53.10;95868.75;5051639;28;20817;-70
2022/12/14 04:42:01;;;;;;;28.90;17.07;;;;;;;1.32;53.35;95877.19;5065993;28;20429;-70
2022/12/14 04:44:30;;;;;;;28.20;17.03;;;;;;;1.37;52.67;95869.91;5070143;28;20508;-71
2022/12/14 04:46:57;;;;;;;27.80;17.20;;;;;;;1.48;52.89;95870.75;5057246;28;20426;-71
2022/12/14 04:49:25;;;;;;;27.00;17.60;;;;;;;1.57;52.70;95864.81;5069917;28;20413;-69
2022/12/14 04:52:00;;;;;;;28.10;18.13;;;;;;;1.62;52.08;95867.84;5066124;28;20924;-70
2022/12/14 04:54:32;;;;;;;29.20;17.73;;;;;;;1.58;52.49;95866.44;5069336;28;20465;-69
2022/12/14 04:57:06;;;;;;;29.30;17.97;;;;;;;1.60;52.05;95863.72;5060974;28;20456;-72
2022/12/14 04:59:32;;;;;;;30.57;16.93;;;;;;;1.53;53.04;95855.69;5070583;28;20796;-70
2022/12/14 05:02:02;;;;;;;27.17;16.93;;;;;;;1.43;52.87;95853.06;5049452;28;20524;-70
2022/12/14 05:04:53;;;;;;;28.73;18.00;;;;;;;1.48;52.64;95840.56;5066223;28;20448;-69
2022/12/14 05:07:27;;;;;;;25.97;16.23;;;;;;;1.51;53.31;95847.28;5069380;28;20421;-69
2022/12/14 05:09:56;;;;;;;25.80;16.60;;;;;;;1.63;52.56;95845.41;5059054;28;20433;-69
2022/12/14 05:12:30;;;;;;;30.40;17.30;;;;;;;1.66;52.97;95845.94;5067948;28;20420;-70
2022/12/14 05:15:05;;;;;;;26.60;16.90;;;;;;;1.75;52.64;95840.97;5057101;28;20441;-70
2022/12/14 05:17:34;;;;;;;26.20;17.03;;;;;;;1.87;52.44;95845.09;5055394;28;20456;-70
2022/12/14 05:19:59;;;;;;;29.30;16.87;;;;;;;1.81;52.30;95849.00;5060399;28;20429;-70
2022/12/14 05:22:25;;;;;;;24.93;16.73;;;;;;;1.89;52.74;95844.94;5073347;28;20951;-70
2022/12/14 05:24:50;;;;;;;26.83;17.03;;;;;;;1.99;52.15;95841.44;5072101;28;20673;-69
2022/12/14 05:27:16;;;;;;;28.17;18.07;;;;;;;2.05;51.88;95837.50;5060757;28;20264;-70
2022/12/14 05:29:41;;;;;;;22.93;16.17;;;;;;;1.98;52.82;95844.97;5070461;28;20267;-71
2022/12/14 05:32:09;;;;;;;24.57;16.60;;;;;;;1.96;52.21;95844.28;5067850;28;20186;-69
2022/12/14 05:34:35;;;;;;;29.10;17.53;;;;;;;1.90;52.67;95837.03;5064621;28;20280;-69
2022/12/14 05:37:00;;;;;;;26.93;17.47;;;;;;;1.93;52.97;95839.38;5068723;28;20474;-69
2022/12/14 05:39:26;;;;;;;33.03;19.20;;;;;;;2.05;52.81;95834.94;5068668;28;20190;-69
2022/12/14 05:41:52;;;;;;;30.47;17.80;;;;;;;1.91;52.79;95835.28;5044920;28;20177;-69
2022/12/14 05:44:17;;;;;;;52.33;31.07;;;;;;;1.95;52.69;95837.47;5048197;28;20190;-69
2022/12/14 05:46:43;;;;;;;42.33;24.57;;;;;;;2.05;53.02;95829.75;5065294;28;21060;-69
2022/12/14 05:49:08;;;;;;;45.47;26.90;;;;;;;2.03;52.80;95823.06;5058735;28;20182;-69
2022/12/14 05:51:34;;;;;;;31.00;18.83;;;;;;;1.98;52.82;95821.72;5070447;28;20177;-69
2022/12/14 05:53:59;;;;;;;40.80;23.90;;;;;;;2.04;52.86;95815.19;5063916;28;20179;-69
2022/12/14 05:56:25;;;;;;;37.87;23.03;;;;;;;1.96;53.16;95808.13;5058019;28;20692;-69
2022/12/14 05:58:50;;;;;;;29.50;18.03;;;;;;;1.95;53.17;95810.84;5056740;28;20289;-69
2022/12/14 06:01:16;;;;;;;29.70;18.30;;;;;;;1.94;53.37;95799.66;5059459;28;20223;-69
2022/12/14 06:03:42;;;;;;;31.03;18.73;;;;;;;1.98;53.18;95811.38;5070433;28;20175;-71
2022/12/14 06:06:09;;;;;;;28.63;18.17;;;;;;;2.00;53.24;95798.31;5065890;28;20224;-68
2022/12/14 06:08:36;;;;;;;32.03;19.80;;;;;;;1.92;53.45;95790.44;5057880;28;20175;-68
2022/12/14 06:11:10;;;;;;;33.77;20.50;;;;;;;1.87;54.22;95793.41;5057637;28;20417;-69
2022/12/14 06:13:36;;;;;;;28.33;18.43;;;;;;;1.94;53.93;95797.09;5053899;28;20794;-69
2022/12/14 06:16:22;;;;;;;35.20;19.87;;;;;;;1.83;54.10;95792.03;5070098;28;20432;-68
2022/12/14 06:18:49;;;;;;;31.80;18.73;;;;;;;1.80;54.74;95800.88;5060427;28;20481;-70
2022/12/14 06:21:16;;;;;;;31.83;19.00;;;;;;;1.75;54.55;95808.19;5061419;28;21032;-71
2022/12/14 06:23:41;;;;;;;33.43;19.93;;;;;;;1.85;54.93;95795.31;5070765;28;20424;-70
2022/12/14 06:26:08;;;;;;;29.53;18.77;;;;;;;1.79;55.16;95809.56;5063828;28;20455;-72
2022/12/14 06:28:34;;;;;;;30.80;19.30;;;;;;;1.80;55.40;95806.03;5070208;28;20196;-69
2022/12/14 06:30:59;;;;;;;33.90;20.40;;;;;;;1.81;55.67;95804.25;5051421;28;20430;-72
2022/12/14 06:33:25;;;;;;;35.77;20.80;;;;;;;1.83;55.75;95808.34;5055620;28;20590;-72
2022/12/14 06:35:50;;;;;;;36.50;20.67;;;;;;;1.87;56.10;95796.00;5051062;28;20191;-70
2022/12/14 06:38:16;;;;;;;36.20;21.17;;;;;;;1.91;56.19;95786.22;5052141;28;20286;-71
2022/12/14 06:40:41;;;;;;;36.37;21.83;;;;;;;1.75;56.92;95784.13;5053106;28;20677;-69
2022/12/14 06:43:07;;;;;;;32.67;20.60;;;;;;;1.77;56.87;95787.38;5055063;28;20190;-70
2022/12/14 06:45:33;;;;;;;28.40;20.43;;;;;;;1.69;57.53;95781.13;5056835;28;20208;-69
2022/12/14 06:48:00;;;;;;;33.83;20.80;;;;;;;1.77;57.83;95777.03;5055396;28;20419;-70
2022/12/14 06:50:28;;;;;;;36.03;21.40;;;;;;;1.80;57.98;95771.63;5056501;28;20191;-69
2022/12/14 06:52:56;;;;;;;36.67;20.93;;;;;;;1.86;58.09;95753.03;5054729;28;20538;-69
2022/12/14 06:55:23;;;;;;;35.40;20.47;;;;;;;1.85;57.78;95753.97;5056697;28;20445;-69
2022/12/14 06:57:50;;;;;;;34.40;20.50;;;;;;;1.88;58.09;95763.22;5063678;28;20478;-70
2022/12/14 07:00:17;;;;;;;35.77;21.27;;;;;;;1.84;57.91;95760.09;5057696;28;20421;-70
2022/12/14 07:02:42;;;;;;;33.23;20.57;;;;;;;1.76;58.26;95765.09;5054849;28;20961;-70
2022/12/14 07:05:08;;;;;;;37.40;21.00;;;;;;;1.86;58.46;95750.44;5050586;28;20441;-70
2022/12/14 07:07:34;;;;;;;34.97;21.60;;;;;;;1.86;57.95;95747.03;5053798;28;20595;-70
2022/12/14 07:09:59;;;;;;;35.40;21.87;;;;;;;1.89;58.48;95752.72;5060085;28;20187;-70
2022/12/14 07:12:26;;;;;;;33.57;21.93;;;;;;;1.90;58.08;95745.81;5052752;28;20421;-69
2022/12/14 07:14:52;;;;;;;31.87;20.53;;;;;;;1.99;57.82;95750.16;5056774;28;20190;-71
2022/12/14 07:17:18;;;;;;;37.27;21.57;;;;;;;2.07;57.67;95746.91;5054754;28;20768;-69
2022/12/14 07:19:44;;;;;;;38.73;22.67;;;;;;;2.15;57.67;95739.28;5053686;28;20429;-69
2022/12/14 07:22:09;;;;;;;34.17;20.97;;;;;;;2.12;57.49;95731.84;5053305;28;20179;-68
2022/12/14 07:24:35;;;;;;;35.70;21.63;;;;;;;2.16;58.05;95722.84;5053515;28;20282;-69
2022/12/14 07:27:00;;;;;;;32.90;21.73;;;;;;;2.12;58.10;95713.75;5056908;28;20602;-70
2022/12/14 07:29:26;;;;;;;36.10;22.70;;;;;;;2.18;57.96;95713.19;5060838;28;20263;-69
2022/12/14 07:31:51;;;;;;;34.53;21.07;;;;;;;2.01;57.50;95716.47;5056135;28;20183;-71
2022/12/14 07:34:18;;;;;;;37.73;21.70;;;;;;;2.01;57.43;95729.38;5058457;28;20183;-70
2022/12/14 07:36:43;;;;;;;38.27;21.37;;;;;;;2.03;57.12;95727.44;5052368;28;20211;-70
2022/12/14 07:39:13;;;;;;;36.80;21.30;;;;;;;2.10;56.65;95725.97;5056448;28;20558;-70
2022/12/14 07:41:38;;;;;;;38.13;21.67;;;;;;;2.19;56.61;95724.34;5060874;28;20557;-70
2022/12/14 07:44:04;;;;;;;34.27;22.33;;;;;;;2.11;56.91;95718.06;5057688;28;20500;-70
2022/12/14 07:46:33;;;;;;;36.07;23.23;;;;;;;2.05;57.21;95715.22;5062894;28;20583;-72
2022/12/14 07:49:00;;;;;;;36.47;22.20;;;;;;;2.04;57.30;95705.81;5056693;28;20186;-70
2022/12/14 07:51:31;;;;;;;41.33;25.77;;;;;;;2.18;57.02;95710.59;5059470;28;20455;-70
2022/12/14 07:53:56;;;;;;;42.33;25.93;;;;;;;2.23;56.96;95700.66;5054747;28;20495;-69
2022/12/14 07:56:25;;;;;;;42.53;26.07;;;;;;;2.24;57.01;95706.63;5053539;28;20851;-69
2022/12/14 07:58:50;;;;;;;42.10;27.77;;;;;;;2.19;56.92;95695.91;5062120;28;20440;-71
2022/12/14 08:01:17;;;;;;;37.20;25.13;;;;;;;2.21;57.20;95702.56;5052473;28;20505;-70
2022/12/14 08:03:45;;;;;;;36.23;23.83;;;;;;;2.20;56.83;95698.34;5058146;28;20714;-69
2022/12/14 08:06:12;;;;;;;37.03;22.83;;;;;;;2.24;56.60;95691.97;5056755;28;20452;-71
2022/12/14 08:08:38;;;;;;;44.00;24.87;;;;;;;2.32;56.60;95687.88;5050603;28;20459;-70
2022/12/14 08:11:04;;;;;;;39.50;22.57;;;;;;;2.27;56.34;95691.66;5063797;28;20429;-71
2022/12/14 08:13:30;;;;;;;41.73;21.83;;;;;;;2.33;56.52;95690.31;5025256;28;20953;-71
2022/12/14 08:15:55;;;;;;;38.37;23.13;;;;;;;2.29;56.47;95681.22;5060165;28;20716;-70
2022/12/14 08:18:21;;;;;;;41.00;22.63;;;;;;;2.29;55.99;95684.59;5056634;28;20219;-69
2022/12/14 08:20:50;;;;;;;36.20;21.97;;;;;;;2.32;55.69;95682.69;5057317;28;20197;-71
2022/12/14 08:23:16;;;;;;;34.67;21.33;;;;;;;2.39;56.12;95686.38;5052281;28;20245;-71
2022/12/14 08:25:41;;;;;;;42.60;22.70;;;;;;;2.54;55.26;95679.78;5052442;28;20433;-71
2022/12/14 08:28:07;;;;;;;41.40;21.97;;;;;;;2.47;55.39;95678.72;5054116;28;20275;-71
2022/12/14 08:30:37;;;;;;;43.90;22.97;;;;;;;2.46;55.46;95690.03;5060805;28;20186;-70
2022/12/14 08:33:03;;;;;;;38.10;23.10;;;;;;;2.48;55.74;95676.94;5052521;28;20734;-71
2022/12/14 08:35:28;;;;;;;40.70;22.60;;;;;;;2.58;56.13;95688.09;5053996;28;20433;-72
2022/12/14 08:37:53;;;;;;;35.00;22.33;;;;;;;2.61;55.71;95685.22;5049577;28;20199;-72
2022/12/14 08:40:19;;;;;;;36.90;22.40;;;;;;;2.61;55.84;95692.97;5050657;28;20210;-76
2022/12/14 08:42:48;;;;;;;43.37;23.40;;;;;;;2.59;55.62;95693.13;5057409;28;20266;-73
2022/12/14 08:45:14;;;;;;;35.97;21.80;;;;;;;2.64;55.59;95691.91;5058508;28;20204;-72
2022/12/14 08:47:39;;;;;;;36.17;22.30;;;;;;;2.68;55.48;95703.59;5056699;28;20422;-71
2022/12/14 08:50:05;;;;;;;37.20;22.63;;;;;;;2.68;54.94;95698.41;5053709;28;20214;-72
2022/12/14 08:52:31;;;;;;;43.93;22.90;;;;;;;2.64;55.35;95690.13;5055422;28;20252;-72
2022/12/14 08:54:57;;;;;;;31.87;21.20;;;;;;;2.68;55.60;95688.06;5054561;28;20521;-72
2022/12/14 08:57:22;;;;;;;37.23;22.27;;;;;;;2.68;55.88;95680.31;5057828;28;20214;-72
2022/12/14 08:59:48;;;;;;;36.77;23.23;;;;;;;2.75;56.48;95684.78;5059778;28;20453;-72
2022/12/14 09:02:13;;;;;;;41.73;25.07;;;;;;;2.76;56.40;95685.59;5055806;28;20293;-71
2022/12/14 09:04:39;;;;;;;35.37;22.83;;;;;;;2.79;56.74;95682.72;5058607;28;20278;-71
2022/12/14 09:07:04;;;;;;;36.33;23.70;;;;;;;2.85;57.47;95682.16;5055171;28;20270;-71
2022/12/14 09:09:30;;;;;;;39.67;24.17;;;;;;;2.84;57.45;95672.78;5057632;28;20265;-71
2022/12/14 09:11:55;;;;;;;35.63;22.63;;;;;;;2.79;57.45;95687.88;5058018;28;20642;-71
2022/12/14 09:14:21;;;;;;;39.10;24.23;;;;;;;2.86;57.19;95694.16;5057949;28;20526;-72
2022/12/14 09:16:46;;;;;;;37.07;22.80;;;;;;;2.89;57.15;95683.53;5059120;28;20312;-70
2022/12/14 09:19:12;;;;;;;38.80;23.60;;;;;;;2.95;57.51;95683.91;5051553;28;20238;-73
2022/12/14 09:21:38;;;;;;;52.57;24.80;;;;;;;2.98;57.48;95689.59;5059143;28;20211;-70
2022/12/14 09:24:04;;;;;;;39.70;23.97;;;;;;;2.91;57.57;95684.16;5054804;28;20704;-69
2022/12/14 09:26:30;;;;;;;38.43;23.23;;;;;;;2.90;57.51;95690.31;5036627;28;20499;-71
2022/12/14 09:28:56;;;;;;;44.60;23.10;;;;;;;2.97;57.20;95676.81;5061126;28;20500;-72
2022/12/14 09:31:24;;;;;;;45.50;24.17;;;;;;;2.90;57.90;95687.72;5052192;28;20588;-71
2022/12/14 09:33:49;;;;;;;38.03;23.27;;;;;;;2.83;58.04;95676.31;5058763;28;20940;-71
2022/12/14 09:36:22;;;;;;;38.80;23.57;;;;;;;2.85;58.40;95676.16;5051136;28;20449;-71
2022/12/14 09:38:53;;;;;;;42.80;25.47;;;;;;;2.80;58.24;95663.66;5054728;28;20198;-71
2022/12/14 09:41:29;;;;;;;38.90;24.30;;;;;;;2.80;58.76;95668.81;5058432;28;20432;-72
2022/12/14 09:44:30;;;;;;;46.70;25.83;;;;;;;2.74;59.62;95666.81;5034240;28;20426;-70
2022/12/14 09:47:18;;;;;;;37.50;23.70;;;;;;;2.82;59.41;95672.09;5061068;28;20418;-72
2022/12/14 09:49:51;;;;;;;42.27;23.90;;;;;;;2.81;58.75;95675.63;5043566;28;20575;-73
2022/12/14 09:52:25;;;;;;;41.90;23.03;;;;;;;2.78;58.74;95675.91;5055608;28;20424;-72
2022/12/14 09:54:51;;;;;;;44.27;25.07;;;;;;;2.76;58.98;95663.13;5052407;28;20441;-71
2022/12/14 09:57:28;;;;;;;38.37;22.73;;;;;;;2.80;59.27;95670.59;5054831;28;20913;-72
2022/12/14 09:59:53;;;;;;;38.33;23.50;;;;;;;2.78;59.62;95662.97;5057677;28;20421;-72
2022/12/14 10:02:27;;;;;;;41.57;24.23;;;;;;;2.71;59.78;95665.31;5050709;28;20421;-73
2022/12/14 10:05:02;;;;;;;41.83;24.17;;;;;;;2.76;60.22;95655.38;5055823;28;20238;-71
2022/12/14 10:07:46;;;;;;;37.23;24.17;;;;;;;2.78;59.73;95659.59;5052137;28;20432;-71
2022/12/14 10:10:22;;;;;;;46.13;24.67;;;;;;;2.66;60.05;95654.59;5057801;28;20424;-73
2022/12/14 10:13:24;;;;;;;50.20;24.70;;;;;;;2.60;60.28;95653.38;5053932;28;20420;-72
2022/12/14 10:16:14;;;;;;;40.17;25.73;;;;;;;2.69;60.65;95654.31;5033561;28;20445;-72
2022/12/14 10:18:43;;;;;;;42.60;24.67;;;;;;;2.74;60.71;95654.69;5046529;28;20503;-72
2022/12/14 10:21:13;;;;;;;41.70;24.17;;;;;;;2.71;60.50;95648.97;5054252;28;20506;-71
2022/12/14 10:23:41;;;;;;;41.13;24.90;;;;;;;2.71;61.12;95646.41;5052878;28;20418;-71
2022/12/14 10:26:14;;;;;;;43.70;26.43;;;;;;;2.74;60.94;95652.09;5056404;28;20473;-72
2022/12/14 10:28:47;;;;;;;44.47;26.77;;;;;;;2.87;60.67;95656.97;5053118;28;20924;-71
2022/12/14 10:31:34;;;;;;;40.80;24.10;;;;;;;2.90;60.82;95648.91;5058315;28;20508;-72
2022/12/14 10:34:12;;;;;;;44.13;28.67;;;;;;;2.78;61.98;95642.28;5039878;28;20448;-71
2022/12/14 10:36:49;;;;;;;57.70;28.97;;;;;;;2.92;61.96;95639.22;5042216;28;20467;-72
2022/12/14 10:39:32;;;;;;;48.27;27.50;;;;;;;2.92;61.81;95633.25;5047489;28;20471;-72
2022/12/14 10:42:06;;;;;;;49.67;27.87;;;;;;;3.07;61.51;95642.16;5059632;28;20789;-72
2022/12/14 10:44:51;;;;;;;53.03;27.50;;;;;;;2.99;61.46;95630.91;5045776;28;20488;-72
2022/12/14 10:47:39;;;;;;;45.87;27.97;;;;;;;2.98;61.19;95629.28;5058340;28;20421;-72
2022/12/14 10:50:17;;;;;;;46.90;27.10;;;;;;;3.13;61.12;95627.84;5036324;28;20425;-72
2022/12/14 10:52:44;;;;;;;43.17;29.90;;;;;;;3.21;61.45;95629.72;5049441;28;20416;-71
2022/12/14 10:55:33;;;;;;;51.87;27.43;;;;;;;3.28;61.40;95627.31;5051525;28;20253;-71
2022/12/14 10:58:00;;;;;;;42.27;25.73;;;;;;;3.34;61.28;95629.34;5057073;28;20440;-72
2022/12/14 11:00:26;;;;;;;42.17;24.90;;;;;;;3.38;60.77;95621.13;5060138;28;20929;-72
2022/12/14 11:02:53;;;;;;;39.50;25.63;;;;;;;3.41;60.47;95637.34;5055957;28;20426;-72
2022/12/14 11:05:28;;;;;;;39.90;26.53;;;;;;;3.38;60.14;95633.28;5050229;28;20491;-72
2022/12/14 11:07:55;;;;;;;38.30;25.60;;;;;;;3.42;60.38;95639.78;5058781;28;20431;-73
2022/12/14 11:10:26;;;;;;;41.83;26.43;;;;;;;3.31;60.77;95635.63;5052599;28;20433;-73
2022/12/14 11:12:56;;;;;;;41.20;26.67;;;;;;;3.30;60.59;95634.00;5021597;28;20428;-71
2022/12/14 11:15:26;;;;;;;41.27;26.90;;;;;;;3.30;61.04;95625.41;5038031;28;20444;-70
2022/12/14 11:18:16;;;;;;;46.60;27.70;;;;;;;3.32;61.31;95628.66;5052649;28;20460;-71
2022/12/14 11:20:51;;;;;;;38.43;25.80;;;;;;;3.39;60.99;95621.97;5056130;28;20944;-71
2022/12/14 11:23:19;;;;;;;41.70;27.40;;;;;;;3.46;60.06;95623.00;5054325;28;20427;-71
2022/12/14 11:25:46;;;;;;;44.13;28.07;;;;;;;3.41;60.52;95617.44;5056167;28;20503;-71
2022/12/14 11:28:46;;;;;;;45.00;28.27;;;;;;;3.49;60.57;95630.47;5053877;28;20429;-71
2022/12/14 11:31:25;;;;;;;48.17;27.90;;;;;;;3.44;60.24;95626.69;5046412;28;20430;-73
2022/12/14 11:33:52;;;;;;;45.60;31.73;;;;;;;3.35;60.21;95624.00;5056339;28;20894;-71
2022/12/14 11:36:50;;;;;;;50.77;28.80;;;;;;;3.40;60.66;95626.19;5049534;28;20214;-71
2022/12/14 11:39:23;;;;;;;42.03;27.03;;;;;;;3.45;60.52;95617.97;5050174;28;20464;-71
2022/12/14 11:42:03;;;;;;;45.33;27.20;;;;;;;3.50;59.90;95618.34;5057987;28;20431;-71
2022/12/14 11:44:36;;;;;;;43.87;25.67;;;;;;;3.40;60.59;95615.81;5057191;28;20426;-73
2022/12/14 11:47:07;;;;;;;45.47;27.50;;;;;;;3.44;60.84;95604.19;5060849;28;20464;-73
2022/12/14 11:49:36;;;;;;;46.23;26.67;;;;;;;3.45;61.21;95608.41;5054505;28;20436;-70
2022/12/14 11:52:04;;;;;;;48.07;28.50;;;;;;;3.39;61.08;95614.19;5059617;28;20421;-71